< < Back
Terminal Aerodrome Forecast


Current Version              Previous Versions:   1  2  3  4  5  6  7  8  9  

Terminal Aerodrome Forecast

323
FTUS44 KMOB 062331
TAFPNS
TAF
KPNS 062331Z 0700/0724 34005KT P6SM SKC
     FM071700 10008KT P6SM SKC
     FM072100 20009KT P6SM SKC=

Latest METAR

826
SAUS70 KWBC 070000 RRI
MTRPNS
METAR KPNS 062353Z 34011KT 10SM CLR 23/06 A2995 RMK AO2 SLP142 T02280061
10256 20228 55000


USA.gov is the U.S. government's official web portal to all federal, state and local government web resources and services.